Terminal Aerodrome Forecast
Issued by NWS

Home | Current Version | Previous Version | Graphics & Text | Print | Product List | Glossary On
Versions: 1 2 3 4 5 6 7 8 9 10 11 12 13 14 15 16 17 18 19
000
FTUS41 KCLE 202300
TAFFDY
TAF
KFDY 202327Z 2100/2124 22011KT P6SM VCTS SCT035CB BKN100
      TEMPO 2100/2102 26020G35KT 2SM TSRA BR BKN030CB
     FM210400 22008KT P6SM VCSH BKN040
     FM210700 24010KT 6SM BR VCSH SCT018 OVC030
      TEMPO 2108/2112 4SM -SHRA BR SCT009 OVC015
     FM211500 28014KT P6SM BKN035
     FM211900 32016G24KT P6SM VCSH BKN035=

USA.gov is the U.S. government's official web portal to all federal, state and local government web resources and services.